sensor_id;sensor_type;location;lat;lon;timestamp;pressure;altitude;pressure_sealevel;temperature;humidity
50349;BME280;36250;48.740;22.174;2023-04-23T00:00:37;100271.28;;;13.21;49.58
50349;BME280;36250;48.740;22.174;2023-04-23T00:03:06;100271.28;;;13.16;50.17
50349;BME280;36250;48.740;22.174;2023-04-23T00:05:37;100272.63;;;13.13;50.56
50349;BME280;36250;48.740;22.174;2023-04-23T00:08:03;100271.16;;;13.01;51.44
50349;BME280;36250;48.740;22.174;2023-04-23T00:10:30;100267.03;;;12.93;52.94
50349;BME280;36250;48.740;22.174;2023-04-23T00:12:55;100268.34;;;12.86;53.29
50349;BME280;36250;48.740;22.174;2023-04-23T00:15:21;100273.22;;;12.79;54.62
50349;BME280;36250;48.740;22.174;2023-04-23T00:17:47;100266.63;;;12.75;55.13
50349;BME280;36250;48.740;22.174;2023-04-23T00:20:14;100271.50;;;12.68;56.06
50349;BME280;36250;48.740;22.174;2023-04-23T00:22:41;100269.78;;;12.57;56.50
50349;BME280;36250;48.740;22.174;2023-04-23T00:25:07;100273.25;;;12.52;56.38
50349;BME280;36250;48.740;22.174;2023-04-23T00:27:33;100263.69;;;12.49;56.11
50349;BME280;36250;48.740;22.174;2023-04-23T00:29:58;100265.06;;;12.47;56.18
50349;BME280;36250;48.740;22.174;2023-04-23T00:32:24;100262.56;;;12.45;56.67
50349;BME280;36250;48.740;22.174;2023-04-23T00:34:49;100271.25;;;12.37;57.36
50349;BME280;36250;48.740;22.174;2023-04-23T00:37:16;100260.53;;;12.31;58.25
50349;BME280;36250;48.740;22.174;2023-04-23T00:39:41;100261.78;;;12.18;58.39
50349;BME280;36250;48.740;22.174;2023-04-23T00:42:06;100265.53;;;12.07;59.67
50349;BME280;36250;48.740;22.174;2023-04-23T00:44:37;100271.66;;;11.93;60.23
50349;BME280;36250;48.740;22.174;2023-04-23T00:47:03;100270.03;;;11.70;61.71
50349;BME280;36250;48.740;22.174;2023-04-23T00:49:29;100271.09;;;11.47;61.70
50349;BME280;36250;48.740;22.174;2023-04-23T00:51:55;100268.19;;;11.32;61.85
50349;BME280;36250;48.740;22.174;2023-04-23T00:54:21;100268.56;;;11.19;61.75
50349;BME280;36250;48.740;22.174;2023-04-23T00:56:47;100269.34;;;11.14;62.63
50349;BME280;36250;48.740;22.174;2023-04-23T00:59:13;100267.69;;;11.13;62.20
50349;BME280;36250;48.740;22.174;2023-04-23T01:01:39;100271.09;;;11.26;62.59
50349;BME280;36250;48.740;22.174;2023-04-23T01:04:05;100276.94;;;11.34;62.03
50349;BME280;36250;48.740;22.174;2023-04-23T01:06:31;100265.91;;;11.46;61.88
50349;BME280;36250;48.740;22.174;2023-04-23T01:08:57;100264.84;;;11.47;61.08
50349;BME280;36250;48.740;22.174;2023-04-23T01:11:22;100263.19;;;11.46;61.83
50349;BME280;36250;48.740;22.174;2023-04-23T01:13:49;100263.81;;;11.53;61.70
50349;BME280;36250;48.740;22.174;2023-04-23T01:16:14;100258.41;;;11.58;60.99
50349;BME280;36250;48.740;22.174;2023-04-23T01:18:39;100259.59;;;11.67;61.53
50349;BME280;36250;48.740;22.174;2023-04-23T01:21:06;100264.59;;;11.70;61.17
50349;BME280;36250;48.740;22.174;2023-04-23T01:23:32;100272.75;;;11.70;61.08
50349;BME280;36250;48.740;22.174;2023-04-23T01:25:57;100269.69;;;11.66;60.56
50349;BME280;36250;48.740;22.174;2023-04-23T01:28:23;100267.66;;;11.57;60.96
50349;BME280;36250;48.740;22.174;2023-04-23T01:30:49;100267.44;;;11.58;61.23
50349;BME280;36250;48.740;22.174;2023-04-23T01:33:15;100271.22;;;11.57;60.71
50349;BME280;36250;48.740;22.174;2023-04-23T01:35:42;100275.53;;;11.53;61.31
50349;BME280;36250;48.740;22.174;2023-04-23T01:38:09;100284.44;;;11.44;62.04
50349;BME280;36250;48.740;22.174;2023-04-23T01:40:36;100272.56;;;11.33;62.55
50349;BME280;36250;48.740;22.174;2023-04-23T01:43:02;100284.53;;;11.32;62.41
50349;BME280;36250;48.740;22.174;2023-04-23T01:45:29;100284.78;;;11.31;62.82
50349;BME280;36250;48.740;22.174;2023-04-23T01:47:55;100284.28;;;11.34;62.67
50349;BME280;36250;48.740;22.174;2023-04-23T01:50:21;100291.38;;;11.35;62.11
50349;BME280;36250;48.740;22.174;2023-04-23T01:52:49;100284.34;;;11.39;61.93
50349;BME280;36250;48.740;22.174;2023-04-23T01:55:14;100285.19;;;11.39;61.58
50349;BME280;36250;48.740;22.174;2023-04-23T01:57:39;100276.25;;;11.44;61.65
50349;BME280;36250;48.740;22.174;2023-04-23T02:00:10;100279.59;;;11.51;61.71
50349;BME280;36250;48.740;22.174;2023-04-23T02:02:37;100276.94;;;11.56;60.94
50349;BME280;36250;48.740;22.174;2023-04-23T02:05:03;100272.06;;;11.58;60.81
50349;BME280;36250;48.740;22.174;2023-04-23T02:07:31;100279.16;;;11.59;60.38
50349;BME280;36250;48.740;22.174;2023-04-23T02:09:57;100271.03;;;11.64;59.55
50349;BME280;36250;48.740;22.174;2023-04-23T02:12:22;100267.78;;;11.67;59.63
50349;BME280;36250;48.740;22.174;2023-04-23T02:14:48;100266.75;;;11.68;60.12
50349;BME280;36250;48.740;22.174;2023-04-23T02:17:13;100274.34;;;11.66;58.85
50349;BME280;36250;48.740;22.174;2023-04-23T02:19:39;100270.50;;;11.67;58.98
50349;BME280;36250;48.740;22.174;2023-04-23T02:22:05;100273.25;;;11.67;58.78
50349;BME280;36250;48.740;22.174;2023-04-23T02:24:31;100273.84;;;11.69;58.98
50349;BME280;36250;48.740;22.174;2023-04-23T02:26:57;100271.16;;;11.74;58.71
50349;BME280;36250;48.740;22.174;2023-04-23T02:29:23;100275.56;;;11.75;57.92
50349;BME280;36250;48.740;22.174;2023-04-23T02:31:48;100265.25;;;11.60;58.73
50349;BME280;36250;48.740;22.174;2023-04-23T02:34:13;100273.13;;;11.57;58.79
50349;BME280;36250;48.740;22.174;2023-04-23T02:36:39;100272.06;;;11.58;58.75
50349;BME280;36250;48.740;22.174;2023-04-23T02:39:04;100269.38;;;11.63;58.72
50349;BME280;36250;48.740;22.174;2023-04-23T02:41:29;100272.66;;;11.65;58.84
50349;BME280;36250;48.740;22.174;2023-04-23T02:43:55;100273.03;;;11.68;58.54
50349;BME280;36250;48.740;22.174;2023-04-23T02:46:20;100269.53;;;11.73;58.32
50349;BME280;36250;48.740;22.174;2023-04-23T02:48:45;100275.59;;;11.80;57.47
50349;BME280;36250;48.740;22.174;2023-04-23T02:51:12;100268.56;;;11.84;57.00
50349;BME280;36250;48.740;22.174;2023-04-23T02:53:37;100284.13;;;11.88;56.38
50349;BME280;36250;48.740;22.174;2023-04-23T02:56:03;100274.38;;;11.93;56.22
50349;BME280;36250;48.740;22.174;2023-04-23T02:58:28;100274.16;;;11.99;56.52
50349;BME280;36250;48.740;22.174;2023-04-23T03:00:54;100271.16;;;12.01;55.49
50349;BME280;36250;48.740;22.174;2023-04-23T03:03:19;100270.66;;;12.04;55.77
50349;BME280;36250;48.740;22.174;2023-04-23T03:05:45;100276.44;;;12.07;55.11
50349;BME280;36250;48.740;22.174;2023-04-23T03:08:10;100271.28;;;12.11;54.21
50349;BME280;36250;48.740;22.174;2023-04-23T03:10:36;100271.59;;;12.14;54.33
50349;BME280;36250;48.740;22.174;2023-04-23T03:13:01;100272.72;;;12.18;54.16
50349;BME280;36250;48.740;22.174;2023-04-23T03:15:27;100271.63;;;12.19;53.91
50349;BME280;36250;48.740;22.174;2023-04-23T03:17:52;100272.19;;;12.21;53.77
50349;BME280;36250;48.740;22.174;2023-04-23T03:20:18;100272.19;;;12.21;53.99
50349;BME280;36250;48.740;22.174;2023-04-23T03:22:43;100275.50;;;12.23;54.01
50349;BME280;36250;48.740;22.174;2023-04-23T03:25:10;100280.44;;;12.26;53.48
50349;BME280;36250;48.740;22.174;2023-04-23T03:27:35;100273.63;;;12.29;53.02
50349;BME280;36250;48.740;22.174;2023-04-23T03:30:01;100279.66;;;12.31;53.35
50349;BME280;36250;48.740;22.174;2023-04-23T03:32:26;100284.59;;;12.34;53.17
50349;BME280;36250;48.740;22.174;2023-04-23T03:34:52;100285.16;;;12.36;52.97
50349;BME280;36250;48.740;22.174;2023-04-23T03:37:17;100283.81;;;12.38;52.94
50349;BME280;36250;48.740;22.174;2023-04-23T03:39:42;100288.25;;;12.44;52.61
50349;BME280;36250;48.740;22.174;2023-04-23T03:42:08;100287.16;;;12.45;52.88
50349;BME280;36250;48.740;22.174;2023-04-23T03:44:33;100285.53;;;12.49;52.95
50349;BME280;36250;48.740;22.174;2023-04-23T03:46:58;100288.84;;;12.51;54.07
50349;BME280;36250;48.740;22.174;2023-04-23T03:49:25;100291.53;;;12.46;54.34
50349;BME280;36250;48.740;22.174;2023-04-23T03:51:50;100290.63;;;12.36;55.04
50349;BME280;36250;48.740;22.174;2023-04-23T03:54:16;100299.06;;;12.34;55.51
50349;BME280;36250;48.740;22.174;2023-04-23T03:56:41;100295.63;;;12.17;56.15
50349;BME280;36250;48.740;22.174;2023-04-23T03:59:06;100297.13;;;12.03;57.37
50349;BME280;36250;48.740;22.174;2023-04-23T04:01:32;100294.97;;;12.05;57.57
50349;BME280;36250;48.740;22.174;2023-04-23T04:04:00;100296.66;;;12.11;57.44
50349;BME280;36250;48.740;22.174;2023-04-23T04:06:25;100295.03;;;12.15;58.41
50349;BME280;36250;48.740;22.174;2023-04-23T04:08:51;100286.34;;;12.18;58.54
50349;BME280;36250;48.740;22.174;2023-04-23T04:11:16;100284.41;;;12.14;59.15
50349;BME280;36250;48.740;22.174;2023-04-23T04:13:41;100295.03;;;12.15;59.15
50349;BME280;36250;48.740;22.174;2023-04-23T04:16:07;100303.72;;;12.07;59.41
50349;BME280;36250;48.740;22.174;2023-04-23T04:18:32;100294.88;;;11.95;59.76
50349;BME280;36250;48.740;22.174;2023-04-23T04:20:57;100303.00;;;11.90;59.65
50349;BME280;36250;48.740;22.174;2023-04-23T04:23:23;100310.72;;;11.98;60.11
50349;BME280;36250;48.740;22.174;2023-04-23T04:25:48;100309.19;;;12.07;59.28
50349;BME280;36250;48.740;22.174;2023-04-23T04:28:15;100313.84;;;12.12;59.62
50349;BME280;36250;48.740;22.174;2023-04-23T04:30:40;100316.81;;;12.05;60.34
50349;BME280;36250;48.740;22.174;2023-04-23T04:33:06;100316.00;;;11.83;62.18
50349;BME280;36250;48.740;22.174;2023-04-23T04:35:33;100319.50;;;11.78;62.37
50349;BME280;36250;48.740;22.174;2023-04-23T04:37:59;100319.50;;;11.78;62.64
50349;BME280;36250;48.740;22.174;2023-04-23T04:40:25;100318.75;;;11.83;62.19
50349;BME280;36250;48.740;22.174;2023-04-23T04:42:51;100322.31;;;11.88;61.34
50349;BME280;36250;48.740;22.174;2023-04-23T04:45:17;100321.53;;;11.88;61.52
50349;BME280;36250;48.740;22.174;2023-04-23T04:47:42;100325.66;;;11.91;61.43
50349;BME280;36250;48.740;22.174;2023-04-23T04:50:08;100322.09;;;11.90;60.57
50349;BME280;36250;48.740;22.174;2023-04-23T04:52:34;100321.31;;;11.95;60.75
50349;BME280;36250;48.740;22.174;2023-04-23T04:54:59;100327.13;;;12.03;59.91
50349;BME280;36250;48.740;22.174;2023-04-23T04:57:25;100326.66;;;12.11;59.73
50349;BME280;36250;48.740;22.174;2023-04-23T04:59:50;100323.72;;;12.13;58.48
50349;BME280;36250;48.740;22.174;2023-04-23T05:02:15;100324.94;;;12.27;58.51
50349;BME280;36250;48.740;22.174;2023-04-23T05:04:41;100322.88;;;12.39;58.01
50349;BME280;36250;48.740;22.174;2023-04-23T05:07:06;100318.78;;;12.41;57.88
50349;BME280;36250;48.740;22.174;2023-04-23T05:09:32;100317.31;;;12.29;58.09
50349;BME280;36250;48.740;22.174;2023-04-23T05:11:57;100328.63;;;12.16;58.18
50349;BME280;36250;48.740;22.174;2023-04-23T05:14:22;100331.06;;;12.12;59.03
50349;BME280;36250;48.740;22.174;2023-04-23T05:16:50;100323.28;;;12.26;59.48
50349;BME280;36250;48.740;22.174;2023-04-23T05:19:15;100322.13;;;12.48;58.62
50349;BME280;36250;48.740;22.174;2023-04-23T05:21:41;100316.56;;;12.70;58.45
50349;BME280;36250;48.740;22.174;2023-04-23T05:24:06;100316.97;;;12.89;57.84
50349;BME280;36250;48.740;22.174;2023-04-23T05:26:32;100314.09;;;13.05;57.65
50349;BME280;36250;48.740;22.174;2023-04-23T05:28:57;100310.63;;;13.15;57.48
50349;BME280;36250;48.740;22.174;2023-04-23T05:31:22;100319.94;;;13.19;56.41
50349;BME280;36250;48.740;22.174;2023-04-23T05:33:47;100320.28;;;13.28;56.30
50349;BME280;36250;48.740;22.174;2023-04-23T05:36:13;100321.78;;;13.55;56.67
50349;BME280;36250;48.740;22.174;2023-04-23T05:38:39;100320.53;;;13.83;55.52
50349;BME280;36250;48.740;22.174;2023-04-23T05:41:04;100311.56;;;14.08;53.31
50349;BME280;36250;48.740;22.174;2023-04-23T05:43:30;100309.09;;;14.16;51.30
50349;BME280;36250;48.740;22.174;2023-04-23T05:45:55;100313.75;;;14.21;50.12
50349;BME280;36250;48.740;22.174;2023-04-23T05:48:20;100317.63;;;14.25;51.05
50349;BME280;36250;48.740;22.174;2023-04-23T05:50:46;100318.22;;;14.47;50.66
50349;BME280;36250;48.740;22.174;2023-04-23T05:53:13;100313.84;;;14.51;50.61
50349;BME280;36250;48.740;22.174;2023-04-23T05:55:38;100315.22;;;14.74;50.32
50349;BME280;36250;48.740;22.174;2023-04-23T05:58:04;100312.19;;;15.00;49.71
50349;BME280;36250;48.740;22.174;2023-04-23T06:00:30;100313.53;;;15.18;49.24
50349;BME280;36250;48.740;22.174;2023-04-23T06:02:55;100317.66;;;15.10;50.22
50349;BME280;36250;48.740;22.174;2023-04-23T06:05:21;100323.13;;;15.16;50.70
50349;BME280;36250;48.740;22.174;2023-04-23T06:07:46;100324.75;;;15.11;50.81
50349;BME280;36250;48.740;22.174;2023-04-23T06:10:12;100329.97;;;15.18;50.16
50349;BME280;36250;48.740;22.174;2023-04-23T06:12:37;100331.06;;;15.17;48.30
50349;BME280;36250;48.740;22.174;2023-04-23T06:15:05;100330.81;;;15.13;48.51
50349;BME280;36250;48.740;22.174;2023-04-23T06:17:31;100331.38;;;15.05;49.85
50349;BME280;36250;48.740;22.174;2023-04-23T06:19:56;100341.78;;;15.03;48.60
50349;BME280;36250;48.740;22.174;2023-04-23T06:22:22;100338.50;;;14.96;48.97
50349;BME280;36250;48.740;22.174;2023-04-23T06:24:47;100333.56;;;14.93;49.08
50349;BME280;36250;48.740;22.174;2023-04-23T06:27:12;100338.22;;;15.03;49.40
50349;BME280;36250;48.740;22.174;2023-04-23T06:29:38;100332.97;;;15.27;49.53
50349;BME280;36250;48.740;22.174;2023-04-23T06:32:03;100330.19;;;15.47;48.41
50349;BME280;36250;48.740;22.174;2023-04-23T06:34:29;100334.53;;;15.58;48.25
50349;BME280;36250;48.740;22.174;2023-04-23T06:36:54;100326.03;;;15.59;47.44
50349;BME280;36250;48.740;22.174;2023-04-23T06:39:20;100333.69;;;15.67;48.40
50349;BME280;36250;48.740;22.174;2023-04-23T06:41:45;100328.72;;;15.74;48.62
50349;BME280;36250;48.740;22.174;2023-04-23T06:44:10;100329.44;;;15.95;48.12
50349;BME280;36250;48.740;22.174;2023-04-23T06:46:36;100323.63;;;16.02;45.66
50349;BME280;36250;48.740;22.174;2023-04-23T06:49:01;100319.75;;;16.13;45.38
50349;BME280;36250;48.740;22.174;2023-04-23T06:51:27;100317.16;;;16.26;45.61
50349;BME280;36250;48.740;22.174;2023-04-23T06:53:52;100323.16;;;16.33;45.87
50349;BME280;36250;48.740;22.174;2023-04-23T06:56:18;100325.34;;;16.36;46.76
50349;BME280;36250;48.740;22.174;2023-04-23T06:58:43;100319.00;;;16.41;47.21
50349;BME280;36250;48.740;22.174;2023-04-23T07:01:08;100322.06;;;16.34;46.54
50349;BME280;36250;48.740;22.174;2023-04-23T07:03:35;100326.19;;;16.37;45.99
50349;BME280;36250;48.740;22.174;2023-04-23T07:06:01;100326.34;;;16.56;48.53
50349;BME280;36250;48.740;22.174;2023-04-23T07:08:26;100321.56;;;16.71;48.27
50349;BME280;36250;48.740;22.174;2023-04-23T07:10:52;100319.16;;;16.93;46.24
50349;BME280;36250;48.740;22.174;2023-04-23T07:13:17;100331.69;;;17.04;44.93
50349;BME280;36250;48.740;22.174;2023-04-23T07:15:43;100323.53;;;17.23;43.24
50349;BME280;36250;48.740;22.174;2023-04-23T07:18:08;100323.34;;;17.43;41.94
50349;BME280;36250;48.740;22.174;2023-04-23T07:20:34;100317.66;;;17.58;41.04
50349;BME280;36250;48.740;22.174;2023-04-23T07:23:00;100322.41;;;17.77;42.15
50349;BME280;36250;48.740;22.174;2023-04-23T07:25:25;100321.31;;;17.96;40.07
50349;BME280;36250;48.740;22.174;2023-04-23T07:27:52;100318.94;;;18.08;38.46
50349;BME280;36250;48.740;22.174;2023-04-23T07:30:19;100321.25;;;18.20;36.87
50349;BME280;36250;48.740;22.174;2023-04-23T07:32:44;100321.78;;;18.22;36.36
50349;BME280;36250;48.740;22.174;2023-04-23T07:35:10;100320.66;;;18.23;36.46
50349;BME280;36250;48.740;22.174;2023-04-23T07:37:36;100325.94;;;18.19;37.26
50349;BME280;36250;48.740;22.174;2023-04-23T07:40:02;100326.84;;;18.33;37.77
50349;BME280;36250;48.740;22.174;2023-04-23T07:42:29;100328.28;;;18.50;37.35
50349;BME280;36250;48.740;22.174;2023-04-23T07:44:54;100324.03;;;18.57;36.35
50349;BME280;36250;48.740;22.174;2023-04-23T07:47:20;100316.00;;;18.61;36.71
50349;BME280;36250;48.740;22.174;2023-04-23T07:49:45;100309.56;;;18.65;37.45
50349;BME280;36250;48.740;22.174;2023-04-23T07:52:10;100318.31;;;18.86;36.56
50349;BME280;36250;48.740;22.174;2023-04-23T07:54:36;100315.06;;;18.97;35.13
50349;BME280;36250;48.740;22.174;2023-04-23T07:57:01;100320.41;;;19.08;36.33
50349;BME280;36250;48.740;22.174;2023-04-23T07:59:28;100319.13;;;19.19;34.99
50349;BME280;36250;48.740;22.174;2023-04-23T08:01:53;100316.03;;;19.20;35.18
50349;BME280;36250;48.740;22.174;2023-04-23T08:04:19;100321.06;;;19.32;35.82
50349;BME280;36250;48.740;22.174;2023-04-23T08:06:44;100323.97;;;19.40;35.27
50349;BME280;36250;48.740;22.174;2023-04-23T08:09:10;100323.56;;;19.47;34.44
50349;BME280;36250;48.740;22.174;2023-04-23T08:11:35;100322.53;;;19.56;35.96
50349;BME280;36250;48.740;22.174;2023-04-23T08:14:00;100327.03;;;19.66;36.09
50349;BME280;36250;48.740;22.174;2023-04-23T08:16:27;100326.03;;;19.62;35.89
50349;BME280;36250;48.740;22.174;2023-04-23T08:18:52;100330.94;;;19.65;36.26
50349;BME280;36250;48.740;22.174;2023-04-23T08:21:17;100327.84;;;19.66;36.00
50349;BME280;36250;48.740;22.174;2023-04-23T08:23:43;100329.09;;;19.74;36.29
50349;BME280;36250;48.740;22.174;2023-04-23T08:26:09;100321.41;;;19.71;34.88
50349;BME280;36250;48.740;22.174;2023-04-23T08:28:34;100320.81;;;19.74;33.97
50349;BME280;36250;48.740;22.174;2023-04-23T08:31:00;100331.66;;;19.71;34.47
50349;BME280;36250;48.740;22.174;2023-04-23T08:33:25;100320.91;;;19.69;34.72
50349;BME280;36250;48.740;22.174;2023-04-23T08:35:51;100328.38;;;19.68;34.92
50349;BME280;36250;48.740;22.174;2023-04-23T08:38:16;100319.91;;;19.65;34.85
50349;BME280;36250;48.740;22.174;2023-04-23T08:40:44;100326.66;;;19.73;36.09
50349;BME280;36250;48.740;22.174;2023-04-23T08:43:15;100326.22;;;19.79;36.37
50349;BME280;36250;48.740;22.174;2023-04-23T08:45:45;100321.09;;;19.86;35.93
50349;BME280;36250;48.740;22.174;2023-04-23T08:48:12;100327.03;;;19.93;36.48
50349;BME280;36250;48.740;22.174;2023-04-23T08:50:41;100323.47;;;19.93;36.59
50349;BME280;36250;48.740;22.174;2023-04-23T08:53:07;100320.06;;;20.09;36.43
50349;BME280;36250;48.740;22.174;2023-04-23T08:55:33;100324.13;;;20.25;35.94
50349;BME280;36250;48.740;22.174;2023-04-23T08:57:59;100321.56;;;20.29;35.53
50349;BME280;36250;48.740;22.174;2023-04-23T09:00:25;100320.81;;;20.37;36.60
50349;BME280;36250;48.740;22.174;2023-04-23T09:02:51;100313.56;;;20.41;35.60
50349;BME280;36250;48.740;22.174;2023-04-23T09:05:17;100314.25;;;20.47;35.19
50349;BME280;36250;48.740;22.174;2023-04-23T09:07:42;100317.91;;;20.56;35.81
50349;BME280;36250;48.740;22.174;2023-04-23T09:10:10;100309.28;;;20.79;35.78
50349;BME280;36250;48.740;22.174;2023-04-23T09:12:38;100306.59;;;20.88;35.37
50349;BME280;36250;48.740;22.174;2023-04-23T09:15:05;100307.81;;;20.82;34.60
50349;BME280;36250;48.740;22.174;2023-04-23T09:17:35;100311.41;;;20.82;34.93
50349;BME280;36250;48.740;22.174;2023-04-23T09:20:02;100304.94;;;20.87;35.11
50349;BME280;36250;48.740;22.174;2023-04-23T09:25:02;100306.09;;;20.64;35.56
50349;BME280;36250;48.740;22.174;2023-04-23T09:27:29;100304.56;;;20.58;35.26
50349;BME280;36250;48.740;22.174;2023-04-23T09:29:55;100311.03;;;20.53;34.79
50349;BME280;36250;48.740;22.174;2023-04-23T09:32:30;100318.03;;;20.37;34.72
50349;BME280;36250;48.740;22.174;2023-04-23T09:34:56;100320.63;;;20.20;35.12
50349;BME280;36250;48.740;22.174;2023-04-23T09:37:24;100310.00;;;20.13;36.15
50349;BME280;36250;48.740;22.174;2023-04-23T09:39:51;100316.78;;;20.07;35.99
50349;BME280;36250;48.740;22.174;2023-04-23T09:42:22;100314.63;;;20.04;35.04
50349;BME280;36250;48.740;22.174;2023-04-23T09:44:55;100316.19;;;19.97;35.69
50349;BME280;36250;48.740;22.174;2023-04-23T09:47:21;100311.97;;;19.99;36.68
50349;BME280;36250;48.740;22.174;2023-04-23T09:49:48;100301.66;;;20.05;36.16
50349;BME280;36250;48.740;22.174;2023-04-23T09:52:14;100303.47;;;20.09;36.12
50349;BME280;36250;48.740;22.174;2023-04-23T09:54:41;100301.66;;;20.05;35.87
50349;BME280;36250;48.740;22.174;2023-04-23T09:57:06;100303.75;;;20.08;36.06
50349;BME280;36250;48.740;22.174;2023-04-23T09:59:34;100303.03;;;20.16;37.21
50349;BME280;36250;48.740;22.174;2023-04-23T10:02:06;100288.28;;;20.20;37.33
50349;BME280;36250;48.740;22.174;2023-04-23T10:04:32;100289.72;;;20.18;36.86
50349;BME280;36250;48.740;22.174;2023-04-23T10:07:03;100288.88;;;20.17;36.70
50349;BME280;36250;48.740;22.174;2023-04-23T10:09:30;100278.78;;;20.26;35.91
50349;BME280;36250;48.740;22.174;2023-04-23T10:11:57;100285.19;;;20.36;36.37
50349;BME280;36250;48.740;22.174;2023-04-23T10:14:25;100280.16;;;20.60;36.17
50349;BME280;36250;48.740;22.174;2023-04-23T10:16:56;100274.41;;;21.01;35.56
50349;BME280;36250;48.740;22.174;2023-04-23T10:19:23;100268.63;;;21.41;34.24
50349;BME280;36250;48.740;22.174;2023-04-23T10:21:52;100268.72;;;21.76;34.15
50349;BME280;36250;48.740;22.174;2023-04-23T10:24:25;100266.50;;;22.12;33.35
50349;BME280;36250;48.740;22.174;2023-04-23T10:26:56;100259.16;;;22.33;32.68
50349;BME280;36250;48.740;22.174;2023-04-23T10:29:27;100261.47;;;22.57;32.19
50349;BME280;36250;48.740;22.174;2023-04-23T10:31:54;100259.81;;;22.64;30.47
50349;BME280;36250;48.740;22.174;2023-04-23T10:34:20;100249.22;;;22.41;31.59
50349;BME280;36250;48.740;22.174;2023-04-23T10:36:47;100254.28;;;22.21;30.96
50349;BME280;36250;48.740;22.174;2023-04-23T10:39:14;100252.16;;;21.93;32.05
50349;BME280;36250;48.740;22.174;2023-04-23T10:41:41;100252.56;;;21.78;31.90
50349;BME280;36250;48.740;22.174;2023-04-23T10:44:11;100245.88;;;21.62;32.52
50349;BME280;36250;48.740;22.174;2023-04-23T10:46:37;100249.13;;;21.64;32.97
50349;BME280;36250;48.740;22.174;2023-04-23T10:49:07;100242.91;;;21.67;33.25
50349;BME280;36250;48.740;22.174;2023-04-23T10:51:36;100243.41;;;21.60;32.95
50349;BME280;36250;48.740;22.174;2023-04-23T10:54:04;100239.22;;;21.71;32.64
50349;BME280;36250;48.740;22.174;2023-04-23T10:56:30;100236.66;;;22.00;33.59
50349;BME280;36250;48.740;22.174;2023-04-23T10:58:56;100241.56;;;22.29;33.01
50349;BME280;36250;48.740;22.174;2023-04-23T11:01:26;100237.13;;;22.62;32.29
50349;BME280;36250;48.740;22.174;2023-04-23T11:03:52;100230.19;;;23.03;30.94
50349;BME280;36250;48.740;22.174;2023-04-23T11:06:57;100229.06;;;23.33;31.05
50349;BME280;36250;48.740;22.174;2023-04-23T11:12:01;100221.19;;;23.43;29.75
50349;BME280;36250;48.740;22.174;2023-04-23T11:14:33;100226.50;;;23.28;30.23
50349;BME280;36250;48.740;22.174;2023-04-23T11:17:01;100217.94;;;23.33;29.79
50349;BME280;36250;48.740;22.174;2023-04-23T11:19:26;100226.44;;;23.45;29.07
50349;BME280;36250;48.740;22.174;2023-04-23T11:21:58;100226.03;;;23.55;30.05
50349;BME280;36250;48.740;22.174;2023-04-23T11:26:58;100207.25;;;23.81;28.07
50349;BME280;36250;48.740;22.174;2023-04-23T11:29:25;100207.44;;;23.76;28.51
50349;BME280;36250;48.740;22.174;2023-04-23T11:31:52;100201.25;;;23.71;28.53
50349;BME280;36250;48.740;22.174;2023-04-23T11:34:18;100204.59;;;23.64;27.66
50349;BME280;36250;48.740;22.174;2023-04-23T11:36:44;100194.75;;;23.67;26.79
50349;BME280;36250;48.740;22.174;2023-04-23T11:39:10;100195.84;;;23.74;26.53
50349;BME280;36250;48.740;22.174;2023-04-23T11:41:36;100197.47;;;23.75;24.45
50349;BME280;36250;48.740;22.174;2023-04-23T11:44:02;100194.13;;;23.82;25.15
50349;BME280;36250;48.740;22.174;2023-04-23T11:46:28;100199.19;;;23.88;25.41
50349;BME280;36250;48.740;22.174;2023-04-23T11:48:54;100192.38;;;23.57;24.63
50349;BME280;36250;48.740;22.174;2023-04-23T11:51:25;100190.84;;;23.30;25.65
50349;BME280;36250;48.740;22.174;2023-04-23T11:53:51;100187.81;;;23.52;26.76
50349;BME280;36250;48.740;22.174;2023-04-23T11:56:16;100177.56;;;23.94;25.53
50349;BME280;36250;48.740;22.174;2023-04-23T11:58:42;100185.84;;;24.23;25.19
50349;BME280;36250;48.740;22.174;2023-04-23T12:01:09;100178.94;;;24.41;26.05
50349;BME280;36250;48.740;22.174;2023-04-23T12:03:35;100170.91;;;24.28;24.86
50349;BME280;36250;48.740;22.174;2023-04-23T12:06:00;100173.63;;;24.15;24.32
50349;BME280;36250;48.740;22.174;2023-04-23T12:08:32;100163.19;;;24.12;24.64
50349;BME280;36250;48.740;22.174;2023-04-23T12:11:01;100159.13;;;24.43;24.72
50349;BME280;36250;48.740;22.174;2023-04-23T12:13:31;100165.44;;;24.31;25.59
50349;BME280;36250;48.740;22.174;2023-04-23T12:16:02;100161.69;;;24.15;25.39
50349;BME280;36250;48.740;22.174;2023-04-23T12:18:32;100153.41;;;23.86;25.86
50349;BME280;36250;48.740;22.174;2023-04-23T12:21:10;100158.19;;;23.97;26.64
50349;BME280;36250;48.740;22.174;2023-04-23T12:23:37;100150.59;;;24.06;25.77
50349;BME280;36250;48.740;22.174;2023-04-23T12:26:03;100148.44;;;23.91;27.05
50349;BME280;36250;48.740;22.174;2023-04-23T12:28:34;100141.78;;;24.04;25.32
50349;BME280;36250;48.740;22.174;2023-04-23T12:31:09;100136.31;;;23.96;24.56
50349;BME280;36250;48.740;22.174;2023-04-23T12:33:34;100135.28;;;24.00;25.74
50349;BME280;36250;48.740;22.174;2023-04-23T12:35:59;100132.22;;;24.14;25.99
50349;BME280;36250;48.740;22.174;2023-04-23T12:38:26;100134.34;;;24.17;25.19
50349;BME280;36250;48.740;22.174;2023-04-23T12:40:53;100133.22;;;24.30;25.50
50349;BME280;36250;48.740;22.174;2023-04-23T12:43:19;100123.88;;;24.47;24.97